Time;durP1;ratioP1;P1;durP2;ratioP2;P2;SDS_P1;SDS_P2;PMS_P1;PMS_P2;Temp;Humidity;BMP_temperature;BMP_pressure;BME280_temperature;BME280_humidity;BME280_pressure;Samples;Min_cycle;Max_cycle;Signal;HPM_P1;HPM_P2
2023/07/22 00:01:39;;;;;;;4.28;2.15;;;;;;;13.28;66.89;99813.94;10355141;28;20096;-76
2023/07/22 00:06:41;;;;;;;2.55;1.60;;;;;;;13.25;66.81;99816.81;10339079;28;20050;-76
2023/07/22 00:11:45;;;;;;;3.47;2.08;;;;;;;13.27;66.94;99820.16;10355215;28;20125;-76
2023/07/22 00:16:48;;;;;;;4.13;1.92;;;;;;;13.17;66.98;99834.91;10324230;28;20057;-77
2023/07/22 00:21:51;;;;;;;3.45;2.00;;;;;;;13.10;67.04;99831.03;10337394;28;20176;-76
2023/07/22 00:26:54;;;;;;;2.58;1.50;;;;;;;13.14;66.86;99830.72;10353370;28;20514;-76
2023/07/22 00:31:56;;;;;;;3.67;1.70;;;;;;;13.22;66.93;99832.78;10354269;28;20053;-76
2023/07/22 00:36:58;;;;;;;2.70;1.70;;;;;;;13.21;66.64;99837.19;10335769;28;20422;-76
2023/07/22 00:42:01;;;;;;;2.75;1.80;;;;;;;13.20;66.61;99830.28;10336523;28;20042;-75
2023/07/22 00:47:04;;;;;;;2.72;1.55;;;;;;;13.18;66.37;99826.06;10336050;28;20050;-76
2023/07/22 00:52:06;;;;;;;3.60;2.03;;;;;;;13.13;66.31;99825.59;10336177;28;20049;-76
2023/07/22 00:57:09;;;;;;;3.63;1.67;;;;;;;13.03;66.44;99830.63;10353329;28;20056;-76
2023/07/22 01:02:11;;;;;;;3.03;1.67;;;;;;;13.01;66.61;99824.66;10336521;28;21100;-76
2023/07/22 01:07:14;;;;;;;2.75;1.80;;;;;;;13.03;66.31;99820.13;10352281;28;20050;-76
2023/07/22 01:12:16;;;;;;;2.55;1.40;;;;;;;12.98;66.39;99820.44;10337499;28;20045;-76
2023/07/22 01:17:19;;;;;;;2.97;1.65;;;;;;;12.86;66.58;99826.56;10350775;28;20049;-76
2023/07/22 01:22:22;;;;;;;2.70;1.73;;;;;;;12.71;67.29;99817.16;10351601;28;20052;-76
2023/07/22 01:27:24;;;;;;;2.80;1.73;;;;;;;12.68;66.86;99813.94;10351430;28;20089;-76
2023/07/22 01:32:26;;;;;;;2.55;1.60;;;;;;;12.70;67.26;99819.91;10335989;28;20061;-76
2023/07/22 01:37:28;;;;;;;3.28;1.80;;;;;;;12.79;66.83;99819.25;10352214;28;20133;-76
2023/07/22 01:42:30;;;;;;;3.08;1.80;;;;;;;12.78;67.01;99828.09;10335314;28;20057;-76
2023/07/22 01:47:35;;;;;;;3.83;1.90;;;;;;;12.79;66.70;99824.50;10320400;28;20060;-76
2023/07/22 01:52:38;;;;;;;2.90;2.05;;;;;;;12.82;66.65;99819.88;10334924;28;20049;-76
2023/07/22 01:57:41;;;;;;;2.72;1.70;;;;;;;12.94;66.36;99826.06;10334485;28;20053;-76
2023/07/22 02:02:43;;;;;;;2.80;1.70;;;;;;;12.94;65.94;99820.81;10351348;28;20057;-76
2023/07/22 02:07:46;;;;;;;2.75;1.60;;;;;;;12.84;66.29;99819.78;10357956;28;20045;-76
2023/07/22 02:12:48;;;;;;;3.30;1.90;;;;;;;12.87;66.17;99820.38;10341250;28;20050;-76
2023/07/22 02:17:50;;;;;;;2.88;1.95;;;;;;;12.88;65.98;99823.88;10341137;28;20053;-76
2023/07/22 02:22:52;;;;;;;2.85;1.60;;;;;;;12.82;66.11;99819.88;10369713;28;20034;-76
2023/07/22 02:27:54;;;;;;;3.40;1.90;;;;;;;12.86;65.86;99816.06;10340273;28;20180;-76
2023/07/22 02:32:56;;;;;;;4.05;2.03;;;;;;;12.87;66.17;99812.50;10354309;28;20053;-76
2023/07/22 02:37:59;;;;;;;2.83;1.70;;;;;;;12.79;65.90;99817.47;10355404;28;20108;-76
2023/07/22 02:43:01;;;;;;;3.10;1.65;;;;;;;12.79;65.93;99817.47;10338743;28;20053;-76
2023/07/22 02:48:03;;;;;;;3.13;1.88;;;;;;;12.73;65.87;99827.56;10339576;28;20061;-76
2023/07/22 02:53:05;;;;;;;6.00;2.10;;;;;;;12.69;65.84;99819.06;10354013;28;20049;-76
2023/07/22 02:58:07;;;;;;;2.88;1.58;;;;;;;12.81;65.85;99818.19;10338574;28;20053;-76
2023/07/22 03:03:10;;;;;;;3.35;1.90;;;;;;;12.82;66.03;99824.28;10336281;28;20598;-76
2023/07/22 03:08:12;;;;;;;3.67;1.73;;;;;;;12.88;66.00;99824.69;10342057;28;20502;-76
2023/07/22 03:13:17;;;;;;;3.47;1.98;;;;;;;12.83;66.06;99826.81;10323070;28;20108;-76
2023/07/22 03:18:19;;;;;;;3.00;1.90;;;;;;;12.75;66.07;99829.13;10341385;28;20069;-76
2023/07/22 03:23:21;;;;;;;3.35;1.85;;;;;;;12.70;65.89;99833.03;10324341;28;20042;-76
2023/07/22 03:28:25;;;;;;;4.45;1.95;;;;;;;12.59;65.97;99833.78;10340185;28;20058;-76
2023/07/22 03:33:27;;;;;;;3.55;2.00;;;;;;;12.54;66.24;99838.50;10354248;28;20089;-76
2023/07/22 03:38:30;;;;;;;7.25;2.15;;;;;;;12.40;65.87;99835.97;10335385;28;20046;-76
2023/07/22 03:43:32;;;;;;;3.15;1.58;;;;;;;12.40;65.98;99850.88;10350616;28;20395;-76
2023/07/22 03:48:34;;;;;;;4.32;1.92;;;;;;;12.36;66.17;99852.88;10351524;28;20046;-76
2023/07/22 03:53:37;;;;;;;3.67;1.77;;;;;;;12.43;66.08;99856.75;10336264;28;20066;-76
2023/07/22 03:58:39;;;;;;;2.65;1.70;;;;;;;12.42;66.05;99849.81;10339799;28;20462;-76
2023/07/22 04:03:41;;;;;;;2.72;1.75;;;;;;;12.42;66.13;99849.81;10323114;28;20152;-76
2023/07/22 04:08:43;;;;;;;5.00;1.52;;;;;;;12.28;66.00;99844.69;10355683;28;20498;-76
2023/07/22 04:13:45;;;;;;;3.00;1.63;;;;;;;12.27;66.04;99852.63;10340314;28;20041;-76
2023/07/22 04:18:48;;;;;;;5.10;1.95;;;;;;;12.33;66.05;99866.22;10322491;28;20060;-76
2023/07/22 04:23:50;;;;;;;3.38;1.67;;;;;;;12.29;66.26;99856.88;10339704;28;20054;-77
2023/07/22 04:28:52;;;;;;;3.47;1.70;;;;;;;12.19;65.70;99863.66;10356627;28;20062;-77
2023/07/22 04:33:54;;;;;;;9.48;2.45;;;;;;;12.10;65.86;99857.22;10337446;28;20438;-77
2023/07/22 04:38:56;;;;;;;2.90;1.60;;;;;;;12.07;66.03;99862.66;10333882;28;20534;-76
2023/07/22 04:43:58;;;;;;;3.92;1.48;;;;;;;12.17;66.09;99870.78;10334413;28;20044;-77
2023/07/22 04:49:01;;;;;;;3.60;2.00;;;;;;;12.40;65.87;99864.81;10354656;28;20042;-76
2023/07/22 04:54:03;;;;;;;2.90;1.35;;;;;;;12.47;65.24;99865.25;10354092;28;20069;-77
2023/07/22 04:59:05;;;;;;;3.58;1.73;;;;;;;12.57;64.91;99858.44;10322046;28;20058;-77
2023/07/22 05:04:07;;;;;;;4.93;1.70;;;;;;;12.58;64.72;99853.06;10352270;28;20935;-77
2023/07/22 05:09:09;;;;;;;5.88;1.90;;;;;;;12.68;64.54;99861.16;10353562;28;20041;-77
2023/07/22 05:14:11;;;;;;;2.63;1.55;;;;;;;12.67;63.96;99856.84;10338627;28;20046;-77
2023/07/22 05:19:13;;;;;;;3.47;1.80;;;;;;;12.66;64.56;99853.38;10336905;28;20061;-76
2023/07/22 05:24:15;;;;;;;4.05;1.67;;;;;;;12.66;64.83;99842.88;10337093;28;20046;-77
2023/07/22 05:29:17;;;;;;;6.20;2.00;;;;;;;12.82;64.32;99840.84;10337841;28;20086;-77
2023/07/22 05:34:19;;;;;;;3.28;1.67;;;;;;;13.00;63.78;99844.00;10336435;28;20123;-77
2023/07/22 05:39:21;;;;;;;4.03;2.10;;;;;;;13.37;63.59;99844.81;10323202;28;20066;-77
2023/07/22 05:44:23;;;;;;;2.90;1.67;;;;;;;13.63;63.35;99839.38;10338120;28;20049;-77
2023/07/22 05:49:26;;;;;;;2.78;1.70;;;;;;;13.71;62.86;99844.91;10338516;28;20061;-77
2023/07/22 05:54:28;;;;;;;3.08;1.65;;;;;;;13.78;62.62;99845.25;10321040;28;20075;-77
2023/07/22 05:59:30;;;;;;;3.00;1.67;;;;;;;14.00;62.04;99848.00;10331531;28;21078;-77
2023/07/22 06:04:33;;;;;;;3.28;1.80;;;;;;;13.92;61.93;99847.72;10334294;28;20045;-78
2023/07/22 06:09:35;;;;;;;3.15;1.67;;;;;;;13.88;62.08;99851.50;10320067;28;21034;-77
2023/07/22 06:14:37;;;;;;;2.72;1.70;;;;;;;13.81;62.24;99860.81;10335119;28;20086;-77
2023/07/22 06:19:39;;;;;;;3.00;1.90;;;;;;;13.99;62.38;99869.13;10319274;28;20060;-77
2023/07/22 06:24:41;;;;;;;2.65;1.73;;;;;;;14.01;62.14;99860.16;10334856;28;20048;-77
2023/07/22 06:29:43;;;;;;;5.93;1.80;;;;;;;14.29;61.78;99859.75;10333405;28;20060;-78
2023/07/22 06:34:45;;;;;;;3.50;2.00;;;;;;;14.24;61.38;99866.31;10317161;28;21009;-78
2023/07/22 06:39:48;;;;;;;3.42;2.00;;;;;;;14.37;61.49;99873.16;10334090;28;20095;-77
2023/07/22 06:44:50;;;;;;;4.30;2.10;;;;;;;14.64;60.75;99858.88;10335837;28;20038;-77
2023/07/22 06:49:52;;;;;;;4.03;2.40;;;;;;;14.55;60.84;99866.53;10336456;28;20515;-77
2023/07/22 06:54:54;;;;;;;3.88;2.15;;;;;;;14.54;61.50;99867.50;10335801;28;20054;-78
2023/07/22 06:59:56;;;;;;;4.50;2.05;;;;;;;14.86;61.00;99862.34;10332970;28;20054;-77
2023/07/22 07:04:59;;;;;;;5.00;2.20;;;;;;;15.73;59.49;99861.50;10349244;28;20411;-77
2023/07/22 07:10:01;;;;;;;4.47;2.08;;;;;;;16.59;58.36;99851.56;10315688;28;20045;-78
2023/07/22 07:15:03;;;;;;;7.38;2.35;;;;;;;17.25;57.21;99861.53;10318426;28;20046;-77
2023/07/22 07:20:07;;;;;;;3.78;2.17;;;;;;;17.43;56.17;99859.94;10333610;28;20434;-78
2023/07/22 07:25:09;;;;;;;4.95;2.30;;;;;;;16.93;56.91;99860.88;10317032;28;20410;-78
2023/07/22 07:30:11;;;;;;;3.85;2.20;;;;;;;16.99;57.07;99855.06;10333578;28;20561;-78
2023/07/22 07:35:13;;;;;;;5.18;2.83;;;;;;;16.84;57.04;99859.03;10319604;28;20064;-78
2023/07/22 07:40:15;;;;;;;4.07;2.30;;;;;;;17.85;56.39;99845.47;10351908;28;20053;-78
2023/07/22 07:45:17;;;;;;;5.57;2.42;;;;;;;19.38;54.24;99842.38;10335006;28;20490;-78
2023/07/22 07:50:20;;;;;;;3.75;1.92;;;;;;;20.70;51.52;99845.00;10321085;28;20063;-79
2023/07/22 07:55:22;;;;;;;3.88;2.03;;;;;;;21.36;50.47;99842.44;10325290;28;20400;-78
2023/07/22 08:00:24;;;;;;;3.53;2.08;;;;;;;22.38;48.29;99828.56;10323827;28;20054;-79
2023/07/22 08:05:26;;;;;;;4.40;1.90;;;;;;;22.60;47.25;99819.00;10340525;28;20050;-79
2023/07/22 08:10:28;;;;;;;4.40;1.83;;;;;;;22.87;46.46;99809.78;10355388;28;20077;-79
2023/07/22 08:15:30;;;;;;;3.55;1.85;;;;;;;22.84;46.06;99818.16;10356422;28;20077;-79
2023/07/22 08:20:32;;;;;;;4.88;1.95;;;;;;;23.08;45.56;99815.38;10324010;28;20058;-78
2023/07/22 08:25:34;;;;;;;3.25;1.98;;;;;;;22.48;46.23;99818.53;10339759;28;20151;-79
2023/07/22 08:30:37;;;;;;;7.00;2.00;;;;;;;22.70;45.53;99809.81;10340784;28;20150;-79
2023/07/22 08:35:39;;;;;;;3.75;1.90;;;;;;;22.92;44.99;99804.78;10339111;28;20061;-79
2023/07/22 08:40:41;;;;;;;3.22;1.70;;;;;;;23.89;43.73;99808.50;10337836;28;20053;-80
2023/07/22 08:45:44;;;;;;;5.53;2.20;;;;;;;24.52;42.22;99813.44;10355911;28;20121;-80
2023/07/22 08:50:53;;;;;;;3.90;1.80;;;;;;;24.41;40.58;99794.38;10354177;28;20041;-80
2023/07/22 08:55:56;;;;;;;5.55;1.95;;;;;;;23.91;43.04;99795.81;10371279;28;20045;-80
2023/07/22 09:00:58;;;;;;;3.10;1.75;;;;;;;23.20;44.33;99785.47;10355688;28;20197;-80
2023/07/22 09:06:04;;;;;;;3.78;1.73;;;;;;;23.85;41.63;99779.66;10340786;28;20046;-80
2023/07/22 09:11:06;;;;;;;3.40;1.90;;;;;;;24.36;40.94;99778.88;10326288;28;20137;-81
2023/07/22 09:16:10;;;;;;;3.95;1.70;;;;;;;23.63;41.01;99784.03;10354098;28;20045;-82
2023/07/22 09:21:12;;;;;;;5.35;1.63;;;;;;;23.14;42.60;99785.31;10339056;28;20050;-81
2023/07/22 09:26:17;;;;;;;3.33;1.63;;;;;;;24.35;41.11;99771.03;10338885;28;20069;-81
2023/07/22 09:31:21;;;;;;;3.05;1.55;;;;;;;25.38;38.40;99764.56;10323539;28;20054;-82
2023/07/22 09:36:23;;;;;;;4.00;1.73;;;;;;;25.18;37.28;99764.34;10355734;28;20112;-82
2023/07/22 09:41:32;;;;;;;4.28;1.70;;;;;;;24.48;36.94;99765.88;10355789;28;20565;-82
2023/07/22 09:46:34;;;;;;;3.87;1.80;;;;;;;25.48;36.94;99760.56;10356633;28;20042;-82
2023/07/22 09:51:40;;;;;;;2.55;1.30;;;;;;;25.42;33.68;99747.94;10339109;28;20586;-82
2023/07/22 09:57:04;;;;;;;3.67;1.50;;;;;;;25.80;33.73;99741.28;10337954;28;20487;-82
2023/07/22 10:02:10;;;;;;;2.58;1.60;;;;;;;25.79;33.02;99736.91;10338171;28;20053;-82
2023/07/22 10:07:14;;;;;;;2.55;1.50;;;;;;;25.25;33.47;99733.09;10337975;28;20449;-82
2023/07/22 10:12:16;;;;;;;2.33;1.40;;;;;;;24.81;33.79;99735.91;10352748;28;20053;-82
2023/07/22 10:17:19;;;;;;;3.25;1.58;;;;;;;24.32;34.08;99744.66;10321164;28;20050;-83
2023/07/22 10:22:21;;;;;;;3.42;1.52;;;;;;;24.52;34.09;99735.91;10321175;28;20399;-83
2023/07/22 10:27:24;;;;;;;1.90;1.17;;;;;;;24.52;32.50;99725.22;10353086;28;20050;-83
2023/07/22 10:32:38;;;;;;;3.55;1.60;;;;;;;24.70;30.74;99722.13;10336536;28;20141;-82
2023/07/22 10:37:45;;;;;;;9.18;1.77;;;;;;;23.96;33.02;99723.16;10352211;28;20081;-82
2023/07/22 10:42:58;;;;;;;2.22;1.20;;;;;;;23.63;32.29;99719.13;10332792;28;20196;-82
2023/07/22 10:48:06;;;;;;;3.00;1.23;;;;;;;23.99;31.72;99723.59;10334702;28;21125;-82
2023/07/22 10:53:10;;;;;;;2.47;1.30;;;;;;;23.57;33.15;99720.66;10332107;28;20073;-80
2023/07/22 10:58:12;;;;;;;3.03;1.40;;;;;;;23.50;33.20;99703.69;10334166;28;20715;-79
2023/07/22 11:03:15;;;;;;;4.53;1.50;;;;;;;23.11;32.89;99705.63;10333865;28;20057;-81
2023/07/22 11:08:35;;;;;;;2.75;1.33;;;;;;;23.74;33.06;99700.81;10333747;28;20065;-80
2023/07/22 11:13:39;;;;;;;3.33;1.40;;;;;;;24.47;31.48;99689.38;10332916;28;20057;-80
2023/07/22 11:18:42;;;;;;;2.08;1.20;;;;;;;24.33;31.47;99690.22;10351092;28;20061;-80
2023/07/22 11:23:44;;;;;;;3.25;1.58;;;;;;;24.56;31.51;99685.56;10350631;28;20525;-80
2023/07/22 11:28:46;;;;;;;2.30;1.30;;;;;;;24.54;29.56;99685.75;10355238;28;20056;-80
2023/07/22 11:33:48;;;;;;;2.63;1.42;;;;;;;24.91;30.40;99655.34;10342135;28;20061;-80
2023/07/22 11:38:50;;;;;;;3.03;1.50;;;;;;;24.70;30.18;99658.78;10341194;28;20507;-81
2023/07/22 11:43:52;;;;;;;2.53;1.30;;;;;;;24.51;31.13;99670.06;10359541;28;20053;-80
2023/07/22 11:48:55;;;;;;;2.50;1.35;;;;;;;23.88;31.66;99667.94;10359284;28;20426;-81
2023/07/22 11:53:57;;;;;;;2.80;1.50;;;;;;;23.54;31.36;99662.28;10325603;28;20046;-81
2023/07/22 11:59:00;;;;;;;2.95;1.50;;;;;;;23.44;31.90;99648.38;10345016;28;20065;-80
2023/07/22 12:04:09;;;;;;;2.92;1.48;;;;;;;23.65;31.61;99655.69;10343063;28;20115;-80
2023/07/22 12:09:11;;;;;;;3.45;1.83;;;;;;;24.10;31.55;99639.53;10357600;28;20046;-80
2023/07/22 12:14:14;;;;;;;3.30;1.50;;;;;;;24.34;31.62;99655.28;10341266;28;20057;-80
2023/07/22 12:19:17;;;;;;;4.05;1.60;;;;;;;24.81;31.25;99646.81;10356697;28;20341;-81
2023/07/22 12:24:46;;;;;;;5.32;1.75;;;;;;;24.90;29.49;99645.66;10356235;28;20041;-81
2023/07/22 12:29:48;;;;;;;4.35;1.88;;;;;;;24.80;30.65;99642.47;10338975;28;20073;-81
2023/07/22 12:34:50;;;;;;;3.95;1.48;;;;;;;24.99;30.93;99641.84;10358320;28;20104;-81
2023/07/22 12:39:52;;;;;;;3.88;1.60;;;;;;;25.35;30.32;99629.22;10355023;28;20058;-81
2023/07/22 12:44:54;;;;;;;2.70;1.33;;;;;;;25.35;29.99;99629.22;10340454;28;20741;-81
2023/07/22 12:49:57;;;;;;;3.65;1.20;;;;;;;25.24;29.56;99619.03;10355997;28;20056;-82
2023/07/22 12:54:59;;;;;;;5.38;1.60;;;;;;;25.46;29.63;99607.28;10321753;28;20491;-83
2023/07/22 13:00:01;;;;;;;3.53;1.50;;;;;;;25.93;29.21;99617.28;10355930;28;20422;-83
2023/07/22 13:05:03;;;;;;;2.95;1.35;;;;;;;25.99;28.96;99604.97;10338653;28;20416;-83
2023/07/22 13:10:10;;;;;;;2.72;1.48;;;;;;;25.75;29.19;99604.38;10337268;28;20061;-82
2023/07/22 13:15:12;;;;;;;2.45;1.30;;;;;;;25.27;29.99;99607.94;10338342;28;20077;-82
2023/07/22 13:20:15;;;;;;;3.10;1.55;;;;;;;25.25;29.79;99603.78;10338334;28;20088;-82
2023/07/22 13:25:19;;;;;;;2.70;1.55;;;;;;;25.45;29.09;99607.47;10321116;28;20042;-82
2023/07/22 13:30:22;;;;;;;3.53;1.52;;;;;;;25.47;28.39;99581.31;10336327;28;20148;-82
2023/07/22 13:35:24;;;;;;;4.43;2.28;;;;;;;25.34;29.01;99587.44;10352851;28;20057;-82
2023/07/22 13:40:26;;;;;;;5.13;1.73;;;;;;;25.07;29.36;99577.50;10354030;28;20081;-82
2023/07/22 13:45:28;;;;;;;2.60;1.30;;;;;;;25.00;29.27;99582.78;10337414;28;20085;-83
2023/07/22 13:50:30;;;;;;;5.18;1.63;;;;;;;24.97;28.43;99572.47;10354362;28;20145;-82
2023/07/22 13:55:33;;;;;;;3.45;1.50;;;;;;;25.05;28.83;99577.69;10336328;28;20033;-82
2023/07/22 14:00:35;;;;;;;5.50;1.48;;;;;;;25.11;28.86;99570.72;10350712;28;20515;-81
2023/07/22 14:05:37;;;;;;;2.80;1.55;;;;;;;25.34;28.50;99563.34;10352194;28;20096;-82
2023/07/22 14:10:40;;;;;;;5.25;1.58;;;;;;;25.04;28.25;99556.47;10326734;22;20393;-60
2023/07/22 14:15:42;;;;;;;3.25;1.75;;;;;;;25.42;28.46;99562.34;10341925;28;20056;-60
2023/07/22 14:20:45;;;;;;;4.20;1.73;;;;;;;25.32;28.13;99557.31;10345589;28;20052;-60
2023/07/22 14:25:47;;;;;;;2.83;1.55;;;;;;;25.35;28.27;99558.78;10338911;28;20104;-61
2023/07/22 14:30:49;;;;;;;2.22;1.30;;;;;;;25.29;28.77;99552.34;10341367;28;20050;-60
2023/07/22 14:35:51;;;;;;;2.83;1.65;;;;;;;25.24;28.96;99554.78;10343229;28;20049;-60
2023/07/22 14:40:53;;;;;;;3.45;1.40;;;;;;;25.36;28.56;99536.38;10338988;28;20045;-60
2023/07/22 14:45:55;;;;;;;3.85;1.60;;;;;;;25.53;27.95;99546.56;10342977;28;20050;-60
2023/07/22 14:50:57;;;;;;;2.85;1.50;;;;;;;25.32;28.51;99546.63;10342314;28;20050;-61
2023/07/22 14:55:59;;;;;;;3.45;1.58;;;;;;;25.14;28.37;99532.06;10339417;28;20037;-61
2023/07/22 15:01:01;;;;;;;2.85;1.50;;;;;;;25.27;28.63;99524.09;10336684;28;20304;-60
2023/07/22 15:06:06;;;;;;;5.72;2.08;;;;;;;25.24;28.64;99532.53;10338729;28;20053;-61
2023/07/22 15:11:08;;;;;;;8.88;1.42;;;;;;;25.74;28.12;99526.91;10336425;28;20062;-61
2023/07/22 15:16:10;;;;;;;4.05;1.70;;;;;;;25.39;28.10;99526.09;10343068;28;20484;-61
2023/07/22 15:21:12;;;;;;;2.67;1.55;;;;;;;24.94;28.30;99526.53;10338699;28;20064;-61
2023/07/22 15:26:14;;;;;;;2.45;1.50;;;;;;;25.43;28.34;99519.31;10344067;28;20141;-60
2023/07/22 15:31:20;;;;;;;2.35;1.38;;;;;;;25.95;27.27;99509.91;10340819;28;20132;-60
2023/07/22 15:36:22;;;;;;;3.15;1.63;;;;;;;25.96;27.49;99514.28;10339960;28;20431;-60
2023/07/22 15:41:24;;;;;;;3.72;2.00;;;;;;;25.85;27.47;99511.09;10343766;28;20344;-60
2023/07/22 15:46:26;;;;;;;2.17;1.33;;;;;;;25.80;27.62;99513.56;10343625;28;20516;-60
2023/07/22 15:51:28;;;;;;;3.45;1.58;;;;;;;25.71;27.57;99508.56;10342023;28;20049;-60
2023/07/22 15:56:31;;;;;;;7.60;1.90;;;;;;;25.57;27.69;99498.81;10342026;28;20128;-61
2023/07/22 16:01:33;;;;;;;3.58;1.52;;;;;;;25.44;27.74;99499.56;10339958;28;20541;-60
2023/07/22 16:06:35;;;;;;;2.63;1.38;;;;;;;25.55;27.74;99490.97;10339982;28;20076;-60
2023/07/22 16:11:37;;;;;;;3.05;1.73;;;;;;;25.37;28.08;99487.13;10339345;28;20521;-60
2023/07/22 16:16:39;;;;;;;2.45;1.40;;;;;;;25.04;27.70;99489.56;10341687;28;20038;-60
2023/07/22 16:21:41;;;;;;;3.85;1.45;;;;;;;25.01;28.26;99474.75;10346106;28;20046;-60
2023/07/22 16:26:44;;;;;;;2.88;1.35;;;;;;;24.97;28.13;99473.50;10345149;28;20477;-61
2023/07/22 16:31:47;;;;;;;4.15;1.88;;;;;;;24.87;28.18;99485.53;10346200;28;20045;-60
2023/07/22 16:36:49;;;;;;;6.05;1.50;;;;;;;24.79;27.90;99481.16;10343111;28;20046;-60
2023/07/22 16:41:51;;;;;;;3.03;1.45;;;;;;;24.66;28.64;99474.81;10342885;28;20054;-60
2023/07/22 16:46:55;;;;;;;6.50;1.48;;;;;;;24.63;28.50;99480.56;10347278;28;20042;-60
2023/07/22 16:51:59;;;;;;;2.30;1.23;;;;;;;24.36;28.57;99478.66;10345758;28;20364;-60
2023/07/22 16:57:01;;;;;;;3.70;1.52;;;;;;;24.22;28.55;99481.22;10346631;28;20469;-60
2023/07/22 17:02:03;;;;;;;5.13;1.33;;;;;;;24.06;28.92;99478.72;10344518;28;20053;-61
2023/07/22 17:07:05;;;;;;;3.08;1.52;;;;;;;24.13;28.50;99477.00;10346838;28;20117;-60
2023/07/22 17:12:08;;;;;;;5.00;1.65;;;;;;;24.16;28.84;99478.47;10341386;28;20446;-60
2023/07/22 17:17:10;;;;;;;3.05;1.33;;;;;;;24.24;29.07;99467.66;10345618;28;20046;-60
2023/07/22 17:22:12;;;;;;;5.10;1.85;;;;;;;24.33;28.79;99481.72;10336883;28;20061;-60
2023/07/22 17:27:14;;;;;;;3.85;1.58;;;;;;;24.19;28.93;99480.75;10339205;28;20966;-60
2023/07/22 17:32:16;;;;;;;3.40;1.90;;;;;;;24.08;29.49;99470.56;10338969;28;20533;-60
2023/07/22 17:37:18;;;;;;;2.92;1.50;;;;;;;23.90;29.62;99481.63;10339491;28;20053;-60
2023/07/22 17:42:21;;;;;;;3.33;1.67;;;;;;;23.60;29.86;99481.84;10341830;28;20053;-60
2023/07/22 17:47:23;;;;;;;4.05;1.90;;;;;;;23.31;30.23;99477.31;10333171;28;20038;-61
2023/07/22 17:52:25;;;;;;;4.60;1.70;;;;;;;23.20;30.50;99480.47;10336390;28;20042;-60
2023/07/22 17:57:31;;;;;;;3.70;1.90;;;;;;;23.20;30.65;99485.78;10338935;28;20054;-60
2023/07/22 18:02:37;;;;;;;6.68;2.10;;;;;;;23.27;30.82;99489.38;10338164;28;20057;-60
2023/07/22 18:07:40;;;;;;;6.68;1.98;;;;;;;23.28;30.92;99483.88;10340278;28;20046;-60
2023/07/22 18:12:43;;;;;;;3.55;1.60;;;;;;;23.30;31.10;99483.69;10338193;28;20046;-60
2023/07/22 18:17:45;;;;;;;4.25;2.05;;;;;;;23.13;31.26;99488.34;10337674;28;20054;-60
2023/07/22 18:22:47;;;;;;;4.80;1.88;;;;;;;22.93;31.52;99481.06;10339595;28;20383;-60
2023/07/22 18:27:49;;;;;;;4.20;1.80;;;;;;;22.78;31.80;99480.22;10335190;28;20049;-61
2023/07/22 18:32:52;;;;;;;4.60;1.70;;;;;;;22.53;31.77;99482.22;10339936;28;20060;-61
2023/07/22 18:37:54;;;;;;;4.10;1.80;;;;;;;22.36;32.00;99497.50;10355832;28;20143;-60
2023/07/22 18:42:56;;;;;;;3.30;1.92;;;;;;;22.25;32.20;99495.22;10339152;28;20409;-58
2023/07/22 18:47:58;;;;;;;3.28;1.50;;;;;;;22.19;32.15;99501.25;10338860;28;20635;-58
2023/07/22 18:53:00;;;;;;;3.22;1.60;;;;;;;22.15;32.58;99499.94;10339391;28;20057;-58
2023/07/22 18:58:02;;;;;;;4.97;1.70;;;;;;;22.06;32.77;99487.69;10341479;28;20792;-58
2023/07/22 19:03:04;;;;;;;6.07;1.90;;;;;;;22.03;32.99;99496.03;10338725;28;20413;-58
2023/07/22 19:08:06;;;;;;;2.95;1.60;;;;;;;21.87;33.31;99496.09;10338421;28;20719;-58
2023/07/22 19:13:08;;;;;;;5.18;2.13;;;;;;;21.68;33.79;99497.34;10340142;28;20050;-58
2023/07/22 19:18:10;;;;;;;2.95;1.40;;;;;;;21.63;34.02;99502.34;10337477;28;20074;-58
2023/07/22 19:23:12;;;;;;;4.07;1.77;;;;;;;21.58;33.98;99494.03;10336592;28;20148;-58
2023/07/22 19:28:14;;;;;;;4.40;1.52;;;;;;;21.53;34.61;99506.22;10342598;28;20046;-58
2023/07/22 19:33:16;;;;;;;2.63;1.55;;;;;;;21.53;34.64;99511.53;10339954;28;20417;-58
2023/07/22 19:38:18;;;;;;;2.72;1.52;;;;;;;21.52;34.92;99512.53;10337851;28;20057;-58
2023/07/22 19:43:20;;;;;;;4.50;2.00;;;;;;;21.46;35.18;99513.22;10335753;28;20493;-58
2023/07/22 19:48:22;;;;;;;3.10;1.45;;;;;;;21.31;35.57;99505.09;10344949;28;20042;-58
2023/07/22 19:53:24;;;;;;;2.78;1.30;;;;;;;21.20;35.97;99509.91;10349620;28;20366;-58
2023/07/22 19:58:26;;;;;;;4.82;1.60;;;;;;;21.06;36.28;99500.81;10347706;28;20060;-58
2023/07/22 20:03:29;;;;;;;3.28;1.70;;;;;;;20.98;36.63;99504.31;10348109;28;20081;-58
2023/07/22 20:08:32;;;;;;;3.03;1.42;;;;;;;20.94;36.60;99508.31;10348833;28;20089;-58
2023/07/22 20:13:37;;;;;;;3.28;1.60;;;;;;;20.87;37.26;99509.97;10347149;28;20403;-58
2023/07/22 20:18:39;;;;;;;4.43;2.00;;;;;;;20.76;37.82;99517.47;10339253;28;20417;-58
2023/07/22 20:23:41;;;;;;;4.57;2.10;;;;;;;20.60;38.62;99515.63;10339008;28;20046;-58
2023/07/22 20:28:45;;;;;;;4.10;1.70;;;;;;;20.49;38.98;99515.09;10341675;28;20128;-58
2023/07/22 20:33:47;;;;;;;4.28;1.63;;;;;;;20.43;39.50;99510.44;10343882;28;20042;-58
2023/07/22 20:38:49;;;;;;;3.35;1.60;;;;;;;20.34;39.66;99514.88;10341269;28;20528;-58
2023/07/22 20:43:52;;;;;;;4.35;1.90;;;;;;;20.24;39.47;99519.53;10341342;28;20060;-58
2023/07/22 20:48:54;;;;;;;4.70;1.63;;;;;;;20.15;39.65;99518.66;10341646;28;20046;-58
2023/07/22 20:53:56;;;;;;;6.25;1.70;;;;;;;20.11;39.96;99519.97;10342494;28;20129;-58
2023/07/22 20:58:58;;;;;;;3.90;1.50;;;;;;;20.06;40.29;99524.13;10344199;28;20051;-58
2023/07/22 21:04:00;;;;;;;3.55;1.95;;;;;;;19.94;40.54;99520.09;10345052;28;20052;-58
2023/07/22 21:09:05;;;;;;;5.30;1.70;;;;;;;19.84;41.10;99517.59;10347746;28;20132;-58
2023/07/22 21:14:07;;;;;;;4.70;1.55;;;;;;;19.79;40.90;99525.16;10343901;28;20065;-58
2023/07/22 21:19:09;;;;;;;3.42;1.80;;;;;;;19.74;41.44;99522.16;10346995;28;20129;-58
2023/07/22 21:24:11;;;;;;;2.90;1.52;;;;;;;19.74;41.57;99529.28;10344356;28;20064;-58
2023/07/22 21:29:13;;;;;;;3.72;1.88;;;;;;;19.71;41.58;99527.78;10344475;28;20054;-57
2023/07/22 21:34:15;;;;;;;3.47;1.67;;;;;;;19.65;42.23;99528.41;10345096;28;20132;-57
2023/07/22 21:39:17;;;;;;;3.10;1.50;;;;;;;19.50;42.57;99529.19;10345180;28;20318;-58
2023/07/22 21:44:19;;;;;;;3.00;1.30;;;;;;;19.36;42.85;99523.47;10343500;28;20053;-58
2023/07/22 21:49:21;;;;;;;5.28;1.83;;;;;;;19.33;43.22;99536.22;10346148;28;20056;-57
2023/07/22 21:54:23;;;;;;;3.50;1.55;;;;;;;19.24;43.46;99530.00;10343705;28;20038;-57
2023/07/22 21:59:25;;;;;;;3.08;1.70;;;;;;;19.03;43.92;99529.53;10345074;28;21328;-58
2023/07/22 22:04:27;;;;;;;5.05;2.10;;;;;;;18.99;43.98;99530.78;10344619;28;20658;-58
2023/07/22 22:09:29;;;;;;;3.35;1.75;;;;;;;18.94;44.52;99526.94;10343310;28;20050;-57
2023/07/22 22:14:31;;;;;;;8.80;1.85;;;;;;;18.92;44.84;99529.75;10342480;28;20052;-57
2023/07/22 22:19:33;;;;;;;3.05;1.60;;;;;;;18.98;44.62;99525.66;10341110;28;20050;-58
2023/07/22 22:24:35;;;;;;;3.35;1.80;;;;;;;18.95;45.02;99528.63;10341028;28;20136;-57
2023/07/22 22:29:37;;;;;;;3.80;1.80;;;;;;;18.91;45.02;99527.28;10343785;28;20888;-58
2023/07/22 22:34:39;;;;;;;3.75;1.80;;;;;;;18.81;45.57;99530.00;10341408;28;20441;-57
2023/07/22 22:39:41;;;;;;;4.03;2.33;;;;;;;18.76;45.99;99521.69;10340845;28;20046;-58
2023/07/22 22:44:43;;;;;;;5.05;2.28;;;;;;;18.65;46.12;99522.75;10342335;28;20042;-58
2023/07/22 22:49:48;;;;;;;5.53;1.90;;;;;;;18.50;46.64;99518.16;10342638;28;20049;-58
2023/07/22 22:54:50;;;;;;;4.50;2.17;;;;;;;18.32;46.71;99512.03;10343590;28;20127;-57
2023/07/22 22:59:52;;;;;;;2.95;1.77;;;;;;;18.17;46.90;99505.53;10344091;28;20058;-58
2023/07/22 23:04:54;;;;;;;6.00;2.40;;;;;;;18.03;47.62;99500.78;10341373;28;20066;-57
2023/07/22 23:09:56;;;;;;;4.20;1.85;;;;;;;17.79;47.67;99496.06;10340868;28;20120;-58
2023/07/22 23:14:58;;;;;;;3.05;1.65;;;;;;;17.76;48.49;99489.25;10340822;28;20132;-58
2023/07/22 23:20:03;;;;;;;3.38;1.70;;;;;;;17.80;48.37;99493.25;10323212;28;20486;-58
2023/07/22 23:25:06;;;;;;;3.38;1.80;;;;;;;17.87;48.65;99490.00;10347921;28;20573;-57